SIA802 WSSS-ZBAA
Flight info
| Callsign | SIA802 |
|---|---|
| Flight time | N/A |
| Altitude | 35000 |
| Route | VMR6A VMR M771 DUDIS/K0926F350 M771 DAGAG/K0920F360 M771 DOSUT/N0495F360 M771 DULOP/N0499F350 M771 DUMOL/N0495F360 J103 BEKOL/K0920S1100 A461 YIN/K0917S1130 A461 ZHO/K0906S1160 B208 OBMEP/K0907S1130 W56 LEBUN/K0895S1160 W56 NUDKU/K0898S1130 W56 DUGEB DUGEB4A |
| Aircraft | B77W/H-SDE1E2E3FGHIJ2J3J4J5M1RWXY/LB1D1 |
Departure
| Time | N/A |
|---|---|
| Airport | Singapore Changi Airport (WSSS) |
Arrival
| Time | 2026-05-05 13:40 |
|---|---|
| Airport | Beijing Capital International Airport (ZBAA) |
| Time | Latitude | Longitude | Altitude | Speed | Heading |
|---|---|---|---|---|---|
| 2026-05-05 11:45 | 28.79206 | 113.60267 | 36964 ft | 445 kts | 358° |
| 2026-05-05 11:46 | 28.85394 | 113.60752 | 36968 ft | 445 kts | 358° |
| 2026-05-05 11:46 | 28.91578 | 113.61239 | 36980 ft | 445 kts | 358° |
| 2026-05-05 11:47 | 28.97769 | 113.61722 | 36975 ft | 446 kts | 358° |
| 2026-05-05 11:47 | 29.03953 | 113.62202 | 36976 ft | 445 kts | 358° |
| 2026-05-05 11:48 | 29.13198 | 113.62919 | 36971 ft | 445 kts | 358° |
| 2026-05-05 11:48 | 29.19391 | 113.63400 | 36969 ft | 446 kts | 358° |
| 2026-05-05 11:49 | 29.25587 | 113.63883 | 36962 ft | 446 kts | 358° |
| 2026-05-05 11:49 | 29.31788 | 113.64381 | 36966 ft | 445 kts | 359° |
| 2026-05-05 11:50 | 29.37944 | 113.64884 | 36957 ft | 445 kts | 359° |
| 2026-05-05 11:50 | 29.44130 | 113.65388 | 36965 ft | 445 kts | 359° |
| 2026-05-05 11:51 | 29.50310 | 113.65893 | 36961 ft | 445 kts | 359° |
| 2026-05-05 11:51 | 29.56500 | 113.66398 | 36952 ft | 444 kts | 359° |
| 2026-05-05 11:52 | 29.62635 | 113.66899 | 36962 ft | 444 kts | 359° |
| 2026-05-05 11:52 | 29.68790 | 113.67403 | 36949 ft | 443 kts | 359° |
| 2026-05-05 11:53 | 29.74955 | 113.67908 | 36953 ft | 442 kts | 359° |
| 2026-05-05 11:53 | 29.81103 | 113.68412 | 36947 ft | 442 kts | 359° |
| 2026-05-05 11:54 | 29.87228 | 113.69024 | 36953 ft | 445 kts | 4° |
| 2026-05-05 11:54 | 29.93287 | 113.70713 | 36939 ft | 451 kts | 11° |
| 2026-05-05 11:55 | 29.99122 | 113.73374 | 36943 ft | 456 kts | 18° |
| 2026-05-05 11:55 | 30.04929 | 113.76401 | 36948 ft | 457 kts | 18° |
| 2026-05-05 11:56 | 30.10725 | 113.79423 | 36939 ft | 456 kts | 18° |
| 2026-05-05 11:56 | 30.16513 | 113.82405 | 36942 ft | 456 kts | 18° |
| 2026-05-05 11:57 | 30.22306 | 113.85377 | 36939 ft | 456 kts | 18° |
| 2026-05-05 11:57 | 30.28111 | 113.88359 | 36941 ft | 456 kts | 18° |
| 2026-05-05 11:58 | 30.33917 | 113.91347 | 36935 ft | 456 kts | 18° |
| 2026-05-05 11:58 | 30.39682 | 113.94318 | 36938 ft | 455 kts | 18° |
| 2026-05-05 11:59 | 30.45475 | 113.97308 | 36937 ft | 455 kts | 18° |
| 2026-05-05 11:59 | 30.51257 | 114.00296 | 36935 ft | 455 kts | 18° |
| 2026-05-05 12:00 | 30.57039 | 114.03289 | 36934 ft | 454 kts | 18° |
| 2026-05-05 12:00 | 30.62805 | 114.06294 | 36933 ft | 454 kts | 18° |
| 2026-05-05 12:01 | 30.68547 | 114.09298 | 36933 ft | 454 kts | 18° |
| 2026-05-05 12:01 | 30.74314 | 114.12318 | 36936 ft | 454 kts | 18° |
| 2026-05-05 12:02 | 30.80083 | 114.15342 | 36935 ft | 454 kts | 18° |
| 2026-05-05 12:02 | 30.85850 | 114.18368 | 36932 ft | 454 kts | 18° |
| 2026-05-05 12:03 | 30.91576 | 114.21377 | 36929 ft | 454 kts | 19° |
| 2026-05-05 12:03 | 30.97337 | 114.24408 | 36935 ft | 454 kts | 19° |
| 2026-05-05 12:04 | 31.03092 | 114.27440 | 36937 ft | 454 kts | 19° |
| 2026-05-05 12:04 | 31.08845 | 114.30475 | 36937 ft | 454 kts | 19° |
| 2026-05-05 12:05 | 31.14610 | 114.33521 | 36939 ft | 453 kts | 19° |
| 2026-05-05 12:05 | 31.20352 | 114.36559 | 36937 ft | 453 kts | 19° |
| 2026-05-05 12:06 | 31.26088 | 114.39597 | 36937 ft | 453 kts | 19° |
| 2026-05-05 12:06 | 31.31896 | 114.42150 | 36956 ft | 446 kts | 10° |
| 2026-05-05 12:07 | 31.37941 | 114.43580 | 36948 ft | 440 kts | 2° |
| 2026-05-05 12:07 | 31.44041 | 114.44175 | 36938 ft | 439 kts | 0° |
| 2026-05-05 12:08 | 31.50149 | 114.44702 | 36949 ft | 440 kts | 0° |
| 2026-05-05 12:08 | 31.56249 | 114.45268 | 36945 ft | 440 kts | 1° |
| 2026-05-05 12:09 | 31.62321 | 114.45850 | 36937 ft | 440 kts | 1° |
| 2026-05-05 12:09 | 31.68432 | 114.46438 | 36939 ft | 440 kts | 1° |
| 2026-05-05 12:10 | 31.74533 | 114.47021 | 36939 ft | 440 kts | 1° |
| 2026-05-05 12:10 | 31.80629 | 114.47589 | 36937 ft | 439 kts | 1° |
| 2026-05-05 12:11 | 31.86725 | 114.48155 | 36931 ft | 439 kts | 1° |
| 2026-05-05 12:11 | 31.92813 | 114.48723 | 36929 ft | 438 kts | 1° |
| 2026-05-05 12:12 | 31.98864 | 114.49289 | 36928 ft | 438 kts | 1° |
| 2026-05-05 12:12 | 32.04943 | 114.49859 | 36928 ft | 438 kts | 1° |
| 2026-05-05 12:13 | 32.11024 | 114.50430 | 36928 ft | 437 kts | 1° |
| 2026-05-05 12:13 | 32.17096 | 114.51001 | 36925 ft | 437 kts | 1° |
| 2026-05-05 12:14 | 32.23129 | 114.51569 | 36921 ft | 437 kts | 1° |
| 2026-05-05 12:14 | 32.29195 | 114.52141 | 36920 ft | 437 kts | 1° |
| 2026-05-05 12:15 | 32.35252 | 114.52713 | 36918 ft | 436 kts | 1° |
| 2026-05-05 12:15 | 32.41315 | 114.53295 | 36920 ft | 436 kts | 1° |
| 2026-05-05 12:16 | 32.47366 | 114.53878 | 36918 ft | 436 kts | 1° |
| 2026-05-05 12:16 | 32.53417 | 114.54461 | 36921 ft | 436 kts | 1° |
| 2026-05-05 12:17 | 32.59464 | 114.55044 | 36913 ft | 436 kts | 1° |
| 2026-05-05 12:17 | 32.65478 | 114.55625 | 36914 ft | 436 kts | 1° |
| 2026-05-05 12:18 | 32.71521 | 114.56209 | 36913 ft | 436 kts | 1° |
| 2026-05-05 12:18 | 32.77562 | 114.56794 | 36914 ft | 435 kts | 1° |
| 2026-05-05 12:19 | 32.83605 | 114.57380 | 36913 ft | 435 kts | 1° |
| 2026-05-05 12:19 | 32.89654 | 114.57967 | 36911 ft | 435 kts | 1° |
| 2026-05-05 12:20 | 32.95651 | 114.58550 | 36910 ft | 435 kts | 1° |
| 2026-05-05 12:20 | 33.01681 | 114.59137 | 36912 ft | 435 kts | 1° |
| 2026-05-05 12:21 | 33.07713 | 114.59725 | 36909 ft | 434 kts | 1° |
| 2026-05-05 12:21 | 33.13748 | 114.60315 | 36908 ft | 434 kts | 1° |
| 2026-05-05 12:22 | 33.19774 | 114.60904 | 36908 ft | 434 kts | 1° |
| 2026-05-05 12:22 | 33.24778 | 114.61393 | 36905 ft | 434 kts | 1° |
| 2026-05-05 12:23 | 33.31783 | 114.62080 | 36907 ft | 434 kts | 1° |
| 2026-05-05 12:23 | 33.37805 | 114.62671 | 36907 ft | 433 kts | 1° |
| 2026-05-05 12:24 | 33.42810 | 114.63163 | 36906 ft | 433 kts | 1° |
| 2026-05-05 12:24 | 33.48822 | 114.63755 | 36909 ft | 433 kts | 1° |
| 2026-05-05 12:25 | 33.54835 | 114.64348 | 36904 ft | 433 kts | 1° |
| 2026-05-05 12:25 | 33.60843 | 114.64938 | 36900 ft | 431 kts | 0° |
| 2026-05-05 12:26 | 33.63776 | 114.64801 | 36902 ft | 426 kts | 348° |
| 2026-05-05 12:26 | 33.66637 | 114.63901 | 36914 ft | 424 kts | 340° |
| 2026-05-05 12:26 | 33.71833 | 114.60584 | 36905 ft | 427 kts | 322° |
| 2026-05-05 12:27 | 33.76398 | 114.56005 | 36899 ft | 428 kts | 323° |
| 2026-05-05 12:27 | 33.81386 | 114.52268 | 36901 ft | 423 kts | 340° |
| 2026-05-05 12:28 | 33.87160 | 114.50792 | 36886 ft | 427 kts | 356° |
| 2026-05-05 12:28 | 33.93079 | 114.51269 | 36895 ft | 430 kts | 2° |
| 2026-05-05 12:29 | 33.99040 | 114.51939 | 36895 ft | 431 kts | 2° |
| 2026-05-05 12:29 | 34.05018 | 114.52558 | 36895 ft | 431 kts | 1° |
| 2026-05-05 12:30 | 34.10997 | 114.53137 | 36896 ft | 431 kts | 1° |
| 2026-05-05 12:30 | 34.16978 | 114.53707 | 36895 ft | 430 kts | 1° |
| 2026-05-05 12:31 | 34.22942 | 114.54276 | 36898 ft | 429 kts | 1° |
| 2026-05-05 12:31 | 34.28862 | 114.54843 | 36888 ft | 429 kts | 1° |
| 2026-05-05 12:32 | 34.34822 | 114.55415 | 36889 ft | 428 kts | 1° |
| 2026-05-05 12:32 | 34.40717 | 114.55982 | 36891 ft | 427 kts | 1° |
| 2026-05-05 12:33 | 34.46642 | 114.56551 | 36889 ft | 427 kts | 1° |
| 2026-05-05 12:33 | 34.52574 | 114.57116 | 36888 ft | 426 kts | 1° |
| 2026-05-05 12:34 | 34.58500 | 114.57678 | 36887 ft | 426 kts | 1° |
| 2026-05-05 12:34 | 34.64372 | 114.58235 | 36888 ft | 426 kts | 1° |
| 2026-05-05 12:35 | 34.70285 | 114.58799 | 36889 ft | 426 kts | 1° |
| 2026-05-05 12:35 | 34.76192 | 114.59362 | 36883 ft | 426 kts | 1° |
| 2026-05-05 12:36 | 34.82110 | 114.59928 | 36883 ft | 426 kts | 1° |
| 2026-05-05 12:36 | 34.88021 | 114.60494 | 36883 ft | 426 kts | 1° |
| 2026-05-05 12:37 | 34.93932 | 114.61061 | 36879 ft | 426 kts | 1° |
| 2026-05-05 12:37 | 34.99839 | 114.61628 | 36875 ft | 426 kts | 1° |
| 2026-05-05 12:38 | 35.05749 | 114.62196 | 36882 ft | 425 kts | 0° |
| 2026-05-05 12:38 | 35.11655 | 114.62764 | 36886 ft | 425 kts | 0° |
| 2026-05-05 12:39 | 35.17524 | 114.63330 | 36880 ft | 425 kts | 0° |
| 2026-05-05 12:39 | 35.23430 | 114.63901 | 36882 ft | 425 kts | 0° |
| 2026-05-05 12:40 | 35.29337 | 114.64472 | 36886 ft | 425 kts | 0° |
| 2026-05-05 12:40 | 35.35201 | 114.65040 | 36872 ft | 425 kts | 0° |
| 2026-05-05 12:41 | 35.41108 | 114.65613 | 36874 ft | 425 kts | 0° |
| 2026-05-05 12:41 | 35.47011 | 114.66186 | 36874 ft | 425 kts | 0° |
| 2026-05-05 12:42 | 35.52907 | 114.66760 | 36874 ft | 425 kts | 0° |
| 2026-05-05 12:42 | 35.58810 | 114.67334 | 36870 ft | 425 kts | 0° |
| 2026-05-05 12:43 | 35.64666 | 114.67906 | 36870 ft | 425 kts | 0° |
| 2026-05-05 12:43 | 35.70559 | 114.68482 | 36865 ft | 425 kts | 0° |
| 2026-05-05 12:44 | 35.76455 | 114.69058 | 36867 ft | 424 kts | 0° |
| 2026-05-05 12:44 | 35.82347 | 114.69636 | 36864 ft | 424 kts | 0° |
| 2026-05-05 12:45 | 35.88239 | 114.70214 | 36861 ft | 424 kts | 0° |
| 2026-05-05 12:45 | 35.94124 | 114.70793 | 36860 ft | 424 kts | 0° |
| 2026-05-05 12:46 | 36.00009 | 114.71372 | 36858 ft | 424 kts | 360° |
| 2026-05-05 12:46 | 36.05850 | 114.71948 | 36853 ft | 423 kts | 360° |
| 2026-05-05 12:47 | 36.11721 | 114.72523 | 36855 ft | 423 kts | 360° |
| 2026-05-05 12:47 | 36.17595 | 114.73090 | 36849 ft | 423 kts | 360° |
| 2026-05-05 12:48 | 36.23462 | 114.73659 | 36849 ft | 423 kts | 360° |
| 2026-05-05 12:48 | 36.29340 | 114.74229 | 36847 ft | 422 kts | 359° |
| 2026-05-05 12:49 | 36.35152 | 114.75098 | 36842 ft | 427 kts | 6° |
| 2026-05-05 12:49 | 36.40909 | 114.77110 | 36838 ft | 433 kts | 13° |
| 2026-05-05 12:50 | 36.46478 | 114.80111 | 36843 ft | 438 kts | 18° |
| 2026-05-05 12:50 | 36.51984 | 114.83361 | 36836 ft | 438 kts | 18° |
| 2026-05-05 12:51 | 36.57503 | 114.86615 | 36837 ft | 437 kts | 18° |
| 2026-05-05 12:51 | 36.63011 | 114.89832 | 36826 ft | 437 kts | 18° |
| 2026-05-05 12:52 | 36.68519 | 114.93037 | 36829 ft | 437 kts | 17° |
| 2026-05-05 12:52 | 36.74026 | 114.96245 | 36820 ft | 436 kts | 17° |
| 2026-05-05 12:53 | 36.79493 | 114.99434 | 36824 ft | 436 kts | 17° |
| 2026-05-05 12:53 | 36.84993 | 115.02649 | 36821 ft | 436 kts | 17° |
| 2026-05-05 12:54 | 36.93237 | 115.07478 | 36823 ft | 436 kts | 17° |
| 2026-05-05 12:55 | 36.98729 | 115.10701 | 36820 ft | 436 kts | 17° |
| 2026-05-05 12:55 | 37.04220 | 115.13929 | 36807 ft | 436 kts | 17° |
| 2026-05-05 12:56 | 37.09722 | 115.17169 | 36811 ft | 436 kts | 17° |
| 2026-05-05 12:56 | 37.15221 | 115.20411 | 36807 ft | 437 kts | 17° |
| 2026-05-05 12:57 | 37.20691 | 115.23643 | 36808 ft | 437 kts | 17° |
| 2026-05-05 12:57 | 37.26199 | 115.26902 | 36804 ft | 437 kts | 17° |
| 2026-05-05 12:58 | 37.31657 | 115.30137 | 36801 ft | 437 kts | 17° |
| 2026-05-05 12:58 | 37.37166 | 115.33407 | 36800 ft | 437 kts | 17° |
| 2026-05-05 12:59 | 37.42659 | 115.36673 | 36799 ft | 437 kts | 17° |
| 2026-05-05 12:59 | 37.48145 | 115.39940 | 36797 ft | 437 kts | 17° |
| 2026-05-05 13:00 | 37.56399 | 115.44864 | 36493 ft | 441 kts | 17° |
| 2026-05-05 13:01 | 37.64714 | 115.49843 | 34756 ft | 436 kts | 17° |
| 2026-05-05 13:01 | 37.67445 | 115.51483 | 34250 ft | 431 kts | 18° |
| 2026-05-05 13:01 | 37.70144 | 115.53101 | 33770 ft | 427 kts | 18° |
| 2026-05-05 13:01 | 37.72802 | 115.54695 | 33224 ft | 424 kts | 18° |
| 2026-05-05 13:02 | 37.75480 | 115.56299 | 32713 ft | 419 kts | 17° |
| 2026-05-05 13:02 | 37.78152 | 115.57529 | 32228 ft | 407 kts | 8° |
| 2026-05-05 13:02 | 37.80933 | 115.58248 | 31762 ft | 399 kts | 2° |
| 2026-05-05 13:02 | 37.83633 | 115.58603 | 31288 ft | 392 kts | 356° |
| 2026-05-05 13:03 | 37.86333 | 115.58518 | 30822 ft | 386 kts | 352° |
| 2026-05-05 13:03 | 37.89012 | 115.58299 | 30372 ft | 386 kts | 351° |
| 2026-05-05 13:03 | 37.91710 | 115.58062 | 29923 ft | 393 kts | 351° |
| 2026-05-05 13:03 | 37.94481 | 115.57823 | 29405 ft | 406 kts | 352° |
| 2026-05-05 13:04 | 37.97340 | 115.57593 | 28847 ft | 411 kts | 352° |
| 2026-05-05 13:04 | 38.00190 | 115.57402 | 28309 ft | 410 kts | 354° |
| 2026-05-05 13:04 | 38.03049 | 115.57584 | 27859 ft | 414 kts | 2° |
| 2026-05-05 13:04 | 38.05903 | 115.58148 | 27544 ft | 415 kts | 6° |
| 2026-05-05 13:05 | 38.08706 | 115.59054 | 27258 ft | 415 kts | 11° |
| 2026-05-05 13:05 | 38.11472 | 115.60076 | 26934 ft | 413 kts | 11° |
| 2026-05-05 13:05 | 38.14183 | 115.61094 | 26489 ft | 411 kts | 11° |
| 2026-05-05 13:05 | 38.16922 | 115.62124 | 26018 ft | 408 kts | 11° |
| 2026-05-05 13:06 | 38.19641 | 115.63140 | 25550 ft | 405 kts | 11° |
| 2026-05-05 13:06 | 38.22339 | 115.64142 | 25078 ft | 403 kts | 12° |
| 2026-05-05 13:06 | 38.25027 | 115.65137 | 24631 ft | 401 kts | 12° |
| 2026-05-05 13:06 | 38.27699 | 115.66123 | 24168 ft | 399 kts | 12° |
| 2026-05-05 13:07 | 38.30364 | 115.67106 | 23702 ft | 398 kts | 12° |
| 2026-05-05 13:07 | 38.33024 | 115.68087 | 23235 ft | 398 kts | 12° |
| 2026-05-05 13:07 | 38.35676 | 115.69066 | 22711 ft | 396 kts | 12° |
| 2026-05-05 13:07 | 38.38293 | 115.70034 | 22230 ft | 394 kts | 12° |
| 2026-05-05 13:08 | 38.40914 | 115.71005 | 21773 ft | 392 kts | 12° |
| 2026-05-05 13:08 | 38.42683 | 115.71660 | 21462 ft | 390 kts | 12° |
| 2026-05-05 13:08 | 38.46124 | 115.72935 | 20876 ft | 387 kts | 12° |
| 2026-05-05 13:08 | 38.47841 | 115.73572 | 20576 ft | 386 kts | 13° |
| 2026-05-05 13:09 | 38.50416 | 115.74527 | 20133 ft | 384 kts | 13° |
| 2026-05-05 13:09 | 38.52970 | 115.75475 | 19698 ft | 382 kts | 13° |
| 2026-05-05 13:09 | 38.55527 | 115.76425 | 19255 ft | 381 kts | 13° |
| 2026-05-05 13:09 | 38.58890 | 115.77676 | 18680 ft | 379 kts | 13° |
| 2026-05-05 13:10 | 38.60594 | 115.78310 | 18388 ft | 378 kts | 13° |
| 2026-05-05 13:10 | 38.63120 | 115.79252 | 17932 ft | 377 kts | 13° |
| 2026-05-05 13:10 | 38.65639 | 115.80190 | 17443 ft | 376 kts | 13° |
| 2026-05-05 13:10 | 38.68093 | 115.81097 | 17289 ft | 365 kts | 13° |
| 2026-05-05 13:11 | 38.70513 | 115.81978 | 17180 ft | 358 kts | 13° |
| 2026-05-05 13:11 | 38.72870 | 115.82834 | 17190 ft | 347 kts | 13° |
| 2026-05-05 13:11 | 38.75260 | 115.83695 | 17033 ft | 367 kts | 13° |
| 2026-05-05 13:11 | 38.77743 | 115.84590 | 16915 ft | 373 kts | 13° |
| 2026-05-05 13:12 | 38.80240 | 115.85496 | 16792 ft | 370 kts | 13° |
| 2026-05-05 13:12 | 38.82705 | 115.86394 | 16686 ft | 367 kts | 13° |
| 2026-05-05 13:12 | 38.85157 | 115.87288 | 16586 ft | 364 kts | 13° |
| 2026-05-05 13:12 | 38.87590 | 115.88177 | 16485 ft | 362 kts | 13° |
| 2026-05-05 13:13 | 38.90006 | 115.89059 | 16392 ft | 360 kts | 13° |
| 2026-05-05 13:13 | 38.92384 | 115.89927 | 16292 ft | 359 kts | 13° |
| 2026-05-05 13:13 | 38.94781 | 115.90803 | 16203 ft | 358 kts | 13° |
| 2026-05-05 13:13 | 38.97176 | 115.91678 | 16103 ft | 359 kts | 13° |
| 2026-05-05 13:14 | 38.99581 | 115.92558 | 16006 ft | 359 kts | 13° |
| 2026-05-05 13:14 | 39.01982 | 115.93439 | 15909 ft | 360 kts | 13° |
| 2026-05-05 13:14 | 39.04394 | 115.94321 | 15809 ft | 360 kts | 13° |
| 2026-05-05 13:14 | 39.06806 | 115.95205 | 15713 ft | 361 kts | 13° |
| 2026-05-05 13:15 | 39.09219 | 115.96091 | 15614 ft | 361 kts | 13° |
| 2026-05-05 13:15 | 39.11639 | 115.96980 | 15509 ft | 361 kts | 13° |
| 2026-05-05 13:15 | 39.14057 | 115.97869 | 15427 ft | 360 kts | 13° |
| 2026-05-05 13:15 | 39.16445 | 115.98748 | 15322 ft | 360 kts | 13° |
| 2026-05-05 13:16 | 39.18847 | 115.99632 | 15229 ft | 359 kts | 13° |
| 2026-05-05 13:16 | 39.21239 | 116.00513 | 15127 ft | 358 kts | 13° |
| 2026-05-05 13:16 | 39.23631 | 116.01394 | 15033 ft | 356 kts | 13° |
| 2026-05-05 13:16 | 39.26011 | 116.02272 | 14935 ft | 355 kts | 13° |
| 2026-05-05 13:17 | 39.28377 | 116.03147 | 14795 ft | 352 kts | 13° |
| 2026-05-05 13:17 | 39.30734 | 116.04018 | 14481 ft | 350 kts | 13° |
| 2026-05-05 13:17 | 39.33063 | 116.04878 | 14101 ft | 347 kts | 12° |
| 2026-05-05 13:17 | 39.35381 | 116.05737 | 13792 ft | 343 kts | 13° |
| 2026-05-05 13:18 | 39.37650 | 116.06578 | 13663 ft | 336 kts | 12° |
| 2026-05-05 13:18 | 39.39904 | 116.07411 | 13556 ft | 339 kts | 12° |
| 2026-05-05 13:18 | 39.42193 | 116.08256 | 13432 ft | 345 kts | 12° |
| 2026-05-05 13:18 | 39.44510 | 116.09114 | 13313 ft | 347 kts | 13° |
| 2026-05-05 13:19 | 39.46826 | 116.09975 | 13162 ft | 345 kts | 13° |
| 2026-05-05 13:19 | 39.49100 | 116.10822 | 13048 ft | 343 kts | 13° |
| 2026-05-05 13:19 | 39.51393 | 116.11674 | 12933 ft | 341 kts | 12° |
| 2026-05-05 13:19 | 39.53697 | 116.12353 | 12804 ft | 337 kts | 5° |
| 2026-05-05 13:20 | 39.56025 | 116.12576 | 12694 ft | 333 kts | 359° |
| 2026-05-05 13:20 | 39.58344 | 116.12658 | 12582 ft | 333 kts | 358° |
| 2026-05-05 13:20 | 39.60662 | 116.12723 | 12468 ft | 334 kts | 358° |
| 2026-05-05 13:20 | 39.62988 | 116.12787 | 12347 ft | 335 kts | 358° |
| 2026-05-05 13:21 | 39.65325 | 116.12855 | 12233 ft | 336 kts | 358° |
| 2026-05-05 13:21 | 39.67661 | 116.12933 | 12111 ft | 336 kts | 358° |
| 2026-05-05 13:21 | 39.69973 | 116.13014 | 11992 ft | 336 kts | 358° |
| 2026-05-05 13:21 | 39.72308 | 116.13098 | 11877 ft | 336 kts | 358° |
| 2026-05-05 13:22 | 39.74655 | 116.13182 | 11756 ft | 336 kts | 358° |
| 2026-05-05 13:22 | 39.77000 | 116.13266 | 11638 ft | 336 kts | 358° |
| 2026-05-05 13:22 | 39.79337 | 116.13352 | 11518 ft | 336 kts | 358° |
| 2026-05-05 13:22 | 39.81681 | 116.13440 | 11384 ft | 336 kts | 358° |
| 2026-05-05 13:23 | 39.84023 | 116.13528 | 11287 ft | 336 kts | 358° |
| 2026-05-05 13:23 | 39.86361 | 116.13612 | 11154 ft | 335 kts | 358° |
| 2026-05-05 13:23 | 39.88663 | 116.13697 | 11058 ft | 334 kts | 358° |
| 2026-05-05 13:23 | 39.90982 | 116.13784 | 10942 ft | 334 kts | 358° |
| 2026-05-05 13:24 | 39.93310 | 116.13873 | 10830 ft | 333 kts | 358° |
| 2026-05-05 13:24 | 39.95630 | 116.13960 | 10717 ft | 333 kts | 358° |
| 2026-05-05 13:24 | 39.97942 | 116.14046 | 10608 ft | 333 kts | 358° |
| 2026-05-05 13:24 | 40.00247 | 116.14131 | 10513 ft | 332 kts | 358° |
| 2026-05-05 13:25 | 40.02556 | 116.14214 | 10522 ft | 328 kts | 358° |
| 2026-05-05 13:25 | 40.04829 | 116.14302 | 10517 ft | 325 kts | 358° |
| 2026-05-05 13:25 | 40.07069 | 116.14390 | 10388 ft | 317 kts | 358° |
| 2026-05-05 13:25 | 40.09244 | 116.14474 | 10287 ft | 307 kts | 358° |
| 2026-05-05 13:26 | 40.11348 | 116.14556 | 10188 ft | 298 kts | 358° |
| 2026-05-05 13:26 | 40.13389 | 116.14638 | 10074 ft | 289 kts | 358° |
| 2026-05-05 13:26 | 40.15386 | 116.14710 | 10003 ft | 286 kts | 358° |
| 2026-05-05 13:26 | 40.17344 | 116.14776 | 9901 ft | 284 kts | 358° |
| 2026-05-05 13:27 | 40.19312 | 116.14844 | 9804 ft | 282 kts | 358° |
| 2026-05-05 13:27 | 40.21268 | 116.14918 | 9722 ft | 280 kts | 358° |
| 2026-05-05 13:27 | 40.23215 | 116.14993 | 9636 ft | 280 kts | 358° |
| 2026-05-05 13:27 | 40.25162 | 116.15065 | 9543 ft | 280 kts | 358° |
| 2026-05-05 13:28 | 40.27115 | 116.15139 | 9438 ft | 281 kts | 358° |
| 2026-05-05 13:28 | 40.29082 | 116.15213 | 9336 ft | 282 kts | 358° |
| 2026-05-05 13:28 | 40.31034 | 116.15456 | 9079 ft | 284 kts | 16° |
| 2026-05-05 13:28 | 40.32662 | 116.16842 | 8761 ft | 289 kts | 49° |
| 2026-05-05 13:29 | 40.33658 | 116.19126 | 8335 ft | 291 kts | 69° |
| 2026-05-05 13:29 | 40.34374 | 116.21650 | 7904 ft | 297 kts | 72° |
| 2026-05-05 13:29 | 40.35049 | 116.24188 | 7702 ft | 294 kts | 72° |
| 2026-05-05 13:29 | 40.35710 | 116.26709 | 7437 ft | 292 kts | 72° |
| 2026-05-05 13:30 | 40.36375 | 116.29232 | 7202 ft | 292 kts | 73° |
| 2026-05-05 13:30 | 40.37038 | 116.31736 | 7028 ft | 289 kts | 73° |
| 2026-05-05 13:30 | 40.37699 | 116.34219 | 6769 ft | 288 kts | 73° |
| 2026-05-05 13:30 | 40.38363 | 116.36702 | 6479 ft | 288 kts | 73° |
| 2026-05-05 13:31 | 40.39030 | 116.39187 | 6230 ft | 287 kts | 74° |
| 2026-05-05 13:31 | 40.39688 | 116.41651 | 5974 ft | 285 kts | 74° |
| 2026-05-05 13:31 | 40.40345 | 116.44114 | 5563 ft | 288 kts | 75° |
| 2026-05-05 13:31 | 40.40717 | 116.46580 | 5351 ft | 274 kts | 94° |
| 2026-05-05 13:32 | 40.40739 | 116.49064 | 5233 ft | 273 kts | 96° |
| 2026-05-05 13:32 | 40.40711 | 116.51560 | 5093 ft | 273 kts | 99° |
| 2026-05-05 13:32 | 40.40316 | 116.53891 | 4925 ft | 252 kts | 124° |
| 2026-05-05 13:32 | 40.39229 | 116.55554 | 4699 ft | 235 kts | 152° |
| 2026-05-05 13:33 | 40.37777 | 116.56350 | 4449 ft | 222 kts | 169° |
| 2026-05-05 13:33 | 40.36261 | 116.56835 | 4108 ft | 227 kts | 173° |
| 2026-05-05 13:33 | 40.34700 | 116.57178 | 3801 ft | 227 kts | 176° |
| 2026-05-05 13:33 | 40.33193 | 116.57446 | 3693 ft | 217 kts | 176° |
| 2026-05-05 13:34 | 40.31723 | 116.57688 | 3564 ft | 208 kts | 177° |
| 2026-05-05 13:34 | 40.30311 | 116.57910 | 3446 ft | 199 kts | 178° |
| 2026-05-05 13:34 | 40.28959 | 116.58122 | 3379 ft | 194 kts | 178° |
| 2026-05-05 13:34 | 40.27621 | 116.58332 | 3306 ft | 195 kts | 178° |
| 2026-05-05 13:35 | 40.26273 | 116.58543 | 3185 ft | 193 kts | 177° |
| 2026-05-05 13:35 | 40.24979 | 116.58750 | 3073 ft | 178 kts | 177° |
| 2026-05-05 13:35 | 40.23797 | 116.58940 | 3003 ft | 167 kts | 178° |
| 2026-05-05 13:35 | 40.22650 | 116.59121 | 2844 ft | 162 kts | 178° |
| 2026-05-05 13:36 | 40.21584 | 116.59286 | 2624 ft | 149 kts | 178° |
| 2026-05-05 13:36 | 40.20586 | 116.59449 | 2418 ft | 140 kts | 179° |
| 2026-05-05 13:36 | 40.19612 | 116.59600 | 2228 ft | 145 kts | 178° |
| 2026-05-05 13:36 | 40.18615 | 116.59759 | 2047 ft | 144 kts | 178° |
| 2026-05-05 13:37 | 40.17651 | 116.59911 | 1827 ft | 131 kts | 180° |
| 2026-05-05 13:37 | 40.16787 | 116.60048 | 1684 ft | 125 kts | 179° |
| 2026-05-05 13:37 | 40.15918 | 116.60186 | 1499 ft | 126 kts | 178° |
| 2026-05-05 13:37 | 40.15070 | 116.60319 | 1304 ft | 123 kts | 177° |
| 2026-05-05 13:38 | 40.14201 | 116.60454 | 1162 ft | 131 kts | 178° |
| 2026-05-05 13:38 | 40.13263 | 116.60601 | 980 ft | 140 kts | 175° |
| 2026-05-05 13:38 | 40.12277 | 116.60761 | 781 ft | 140 kts | 173° |
| 2026-05-05 13:38 | 40.11317 | 116.60912 | 575 ft | 138 kts | 173° |
| 2026-05-05 13:39 | 40.10347 | 116.61064 | 385 ft | 141 kts | 173° |
| 2026-05-05 13:39 | 40.09355 | 116.61227 | 209 ft | 146 kts | 173° |
| 2026-05-05 13:39 | 40.08385 | 116.61374 | 127 ft | 129 kts | 173° |
| 2026-05-05 13:39 | 40.07609 | 116.61498 | 124 ft | 91 kts | 173° |
| 2026-05-05 13:40 | 40.07123 | 116.61574 | 126 ft | 52 kts | 174° |
| 2026-05-05 13:40 | 40.06827 | 116.61523 | 124 ft | 28 kts | 203° |
| 2026-05-05 13:40 | 40.06677 | 116.61434 | 125 ft | 17 kts | 216° |
| 2026-05-05 13:40 | 40.06662 | 116.61316 | 127 ft | 11 kts | 304° |
| 2026-05-05 13:41 | 40.06734 | 116.61282 | 124 ft | 11 kts | 352° |
| 2026-05-05 13:41 | 40.06814 | 116.61269 | 126 ft | 13 kts | 353° |
| 2026-05-05 13:41 | 40.06932 | 116.61250 | 126 ft | 23 kts | 353° |
| 2026-05-05 13:41 | 40.07119 | 116.61221 | 126 ft | 29 kts | 353° |
| 2026-05-05 13:42 | 40.07320 | 116.61191 | 126 ft | 29 kts | 353° |
| 2026-05-05 13:42 | 40.07518 | 116.61159 | 126 ft | 25 kts | 354° |
| 2026-05-05 13:42 | 40.07664 | 116.61135 | 124 ft | 14 kts | 353° |
| 2026-05-05 13:42 | 40.07710 | 116.61108 | 125 ft | 4 kts | 304° |
| 2026-05-05 13:43 | 40.07709 | 116.61056 | 126 ft | 10 kts | 252° |
| 2026-05-05 13:43 | 40.07687 | 116.60982 | 124 ft | 7 kts | 279° |
| 2026-05-05 13:43 | 40.07718 | 116.60934 | 124 ft | 7 kts | 316° |
| 2026-05-05 13:43 | 40.07734 | 116.60914 | 125 ft | 2 kts | 317° |
| 2026-05-05 13:44 | 40.07735 | 116.60913 | 125 ft | 0 kts | 317° |